Meteorológiai információk azoknak akik tudják olvasni.

METAR = LHBP 112200Z 29004KT CAVOK 19/18 Q1017 NOSIG

9 órás TAF = TAF TAF LHBP 242330Z 2423/2424 30008KT CAVOK BECMG 2506/2509 24010KT OVC030 TEMPO 2509/2515 24015G25KT 8000 -RA BKN013 OVC025 BECMG 2515/2518 30008KT CAVOK

24 órás TAF = TAF TAF LHBP 111715Z 1118/1218 34006KT CAVOK TEMPO 1118/1206 VRB12G22KT TSRA SHRA SCT040CB BKN070 BECMG 1206/1208 08006KT BECMG 1210/1212 VRB03KT TEMPO 1210/1214 FEW045TCU

ÁLLOMÁS.................... LHBP
ÉSZLELÉS................... Wed Aug 12, 00:00 CEST
MOST....................... Wed Aug 12, 00:17 CEST
IDŐ........................ 17 perccel ezelőtt
SZÉL....................... NYÉNY irányból 4 csomó
LÁTÁSTÁVOLSÁG.............. 10 km vagy több
FELHŐZET................... jelentős felhőzet nincs
HŐMÉRSÉKLET................ 66°F (19°C)
HARMATPONT................. 64°F (18°C)
PÁRATARTALOM............... 94%
LÉGNYOMÁS.................. 1017 hPa (30.03 in Hg)

További információ LHBP állomásról

Meteor információ kérése:        állomásról.    

 

www.tothgeza.hu

 

English version
Copyright © 2003-2020 Tóth Géza Minden jog fenntartva.